createdAt,value
2022-08-17T00:03:10.642Z,75.75
2022-08-17T00:08:14.243Z,76.65
2022-08-17T00:13:26.539Z,76.64
2022-08-17T00:19:01.244Z,73.80
2022-08-17T00:23:53.714Z,73.02
2022-08-17T00:28:55.970Z,74.58
2022-08-17T00:33:58.077Z,74.34
2022-08-17T00:38:59.672Z,73.62
2022-08-17T00:44:05.116Z,74.16
2022-08-17T00:49:08.637Z,73.47
2022-08-17T00:54:18.921Z,73.72
2022-08-17T00:59:25.786Z,74.65
2022-08-17T01:04:29.788Z,75.72
2022-08-17T01:09:32.793Z,75.72
2022-08-17T01:14:34.761Z,76.07
2022-08-17T01:19:41.701Z,76.71
2022-08-17T01:24:46.997Z,76.11
2022-08-17T01:29:55.036Z,76.04
2022-08-17T01:34:57.597Z,75.43
2022-08-17T01:40:13.248Z,74.21
2022-08-17T01:45:21.979Z,74.65
2022-08-17T01:50:28.464Z,75.58
2022-08-17T01:55:38.098Z,75.31
2022-08-17T02:00:46.734Z,76.37
2022-08-17T02:06:02.689Z,76.62
2022-08-17T02:11:11.674Z,76.73
2022-08-17T02:16:13.507Z,77.29
2022-08-17T02:21:15.093Z,77.56
2022-08-17T02:26:25.754Z,79.05
2022-08-17T02:31:28.348Z,78.99
2022-08-17T02:36:29.945Z,77.96
2022-08-17T02:41:31.784Z,78.27
2022-08-17T02:46:33.431Z,78.93
2022-08-17T02:51:35.192Z,79.99
2022-08-17T02:56:36.763Z,79.78
2022-08-17T03:01:38.466Z,80.83
2022-08-17T03:06:40.084Z,78.97
2022-08-17T03:11:41.636Z,79.86
2022-08-17T03:16:43.210Z,81.20
2022-08-17T03:21:45.524Z,79.95
2022-08-17T03:26:47.075Z,80.51
2022-08-17T03:31:49.697Z,81.65
2022-08-17T03:36:51.250Z,82.18
2022-08-17T03:41:52.814Z,82.67
2022-08-17T03:46:54.474Z,82.27
2022-08-17T03:51:57.709Z,82.04
2022-08-17T03:57:08.979Z,82.28
2022-08-17T04:02:21.722Z,83.78
2022-08-17T04:07:28.152Z,83.69
2022-08-17T04:12:41.932Z,82.08
2022-08-17T04:17:44.319Z,80.13
2022-08-17T04:23:06.550Z,79.15
2022-08-17T04:28:15.779Z,79.89
2022-08-17T04:33:21.906Z,82.47
2022-08-17T04:38:27.368Z,81.39
2022-08-17T04:43:31.539Z,82.30
2022-08-17T04:48:37.550Z,81.71
2022-08-17T04:53:51.067Z,81.36
2022-08-17T04:59:00.346Z,78.95
2022-08-17T05:04:20.889Z,77.79
2022-08-17T05:09:28.763Z,78.39
2022-08-17T05:14:33.742Z,76.88
2022-08-17T05:19:35.442Z,75.01
2022-08-17T05:24:50.382Z,76.24
2022-08-17T05:29:55.446Z,75.68
2022-08-17T05:34:57.101Z,74.01
2022-08-17T05:39:58.686Z,73.40
2022-08-17T05:45:00.492Z,73.25
2022-08-17T05:50:02.675Z,73.50
2022-08-17T05:55:37.887Z,74.21
2022-08-17T06:00:52.391Z,73.03
2022-08-17T06:06:05.933Z,72.07
2022-08-17T06:11:10.193Z,70.38
2022-08-17T06:16:28.144Z,69.03
2022-08-17T06:21:39.381Z,70.22
2022-08-17T06:26:43.455Z,67.48
2022-08-17T06:31:45.249Z,67.01
2022-08-17T06:37:06.295Z,65.88
2022-08-17T06:42:55.125Z,63.19
2022-08-17T06:47:56.381Z,60.79
2022-08-17T06:53:14.517Z,60.08
2022-08-17T06:58:20.554Z,59.06
2022-08-17T07:03:48.423Z,60.27
2022-08-17T07:09:02.595Z,58.64
2022-08-17T07:14:13.997Z,56.53
2022-08-17T07:19:23.460Z,55.54
2022-08-17T07:24:36.978Z,54.70
2022-08-17T07:29:59.206Z,56.93
2022-08-17T07:35:10.646Z,56.74
2022-08-17T07:40:49.879Z,55.27
2022-08-17T07:46:03.747Z,55.69
2022-08-17T07:51:28.365Z,56.82
2022-08-17T07:56:42.427Z,54.70
2022-08-17T08:02:23.713Z,54.67
2022-08-17T08:08:02.991Z,55.54
2022-08-17T08:13:14.680Z,57.20
2022-08-17T08:18:54.862Z,58.51
2022-08-17T08:23:55.178Z,60.22
2022-08-17T08:29:31.554Z,60.93
2022-08-17T08:34:47.431Z,62.49
2022-08-17T08:40:10.559Z,63.01
2022-08-17T08:45:21.407Z,64.15
2022-08-17T08:50:47.785Z,64.82
2022-08-17T08:55:55.052Z,64.11
2022-08-17T09:00:59.710Z,64.61
2022-08-17T09:06:37.329Z,64.88
2022-08-17T09:12:02.140Z,66.54
2022-08-17T09:17:16.521Z,67.29
2022-08-17T09:22:33.456Z,67.07
2022-08-17T09:27:50.585Z,67.72
2022-08-17T09:32:58.612Z,66.70
2022-08-17T09:38:16.333Z,67.42
2022-08-17T09:43:41.148Z,69.42
2022-08-17T09:48:53.919Z,70.84
2022-08-17T09:54:09.462Z,68.98
2022-08-17T09:59:45.722Z,68.39
2022-08-17T10:05:13.260Z,65.13
2022-08-17T10:10:27.875Z,61.49
2022-08-17T10:15:50.187Z,59.54
2022-08-17T10:21:18.871Z,57.74
2022-08-17T10:26:24.361Z,57.80
2022-08-17T10:31:44.097Z,58.76
2022-08-17T10:36:45.635Z,57.21
2022-08-17T10:41:51.468Z,54.53
2022-08-17T10:47:12.612Z,49.54
2022-08-17T10:52:20.132Z,50.64
2022-08-17T10:57:30.589Z,48.65
2022-08-17T11:02:49.478Z,49.95
2022-08-17T11:08:03.301Z,52.20
2022-08-17T11:13:09.238Z,55.62
2022-08-17T11:18:25.801Z,54.71
2022-08-17T11:23:52.533Z,50.31
2022-08-17T11:29:06.020Z,47.58
2022-08-17T11:34:13.825Z,49.13
2022-08-17T11:39:18.379Z,48.09
2022-08-17T11:44:28.868Z,52.51
2022-08-17T11:49:56.151Z,48.13
2022-08-17T11:55:12.219Z,43.78
2022-08-17T12:00:46.507Z,48.40
2022-08-17T12:05:49.026Z,46.99
2022-08-17T12:11:56.324Z,46.95
2022-08-17T12:17:06.912Z,47.32
2022-08-17T12:22:08.452Z,45.53
2022-08-17T12:27:11.155Z,45.20
2022-08-17T12:32:20.400Z,44.38
2022-08-17T12:37:23.719Z,44.97
2022-08-17T12:42:38.434Z,44.51
2022-08-17T12:47:40.018Z,45.56
2022-08-17T12:52:43.506Z,48.13
2022-08-17T12:57:49.987Z,45.40
2022-08-17T13:03:19.541Z,47.03
2022-08-17T13:08:41.533Z,42.58
2022-08-17T13:13:48.698Z,41.31
2022-08-17T13:18:53.550Z,39.95
2022-08-17T13:24:13.452Z,41.18
2022-08-17T13:29:23.013Z,42.70
2022-08-17T13:34:24.502Z,42.87
2022-08-17T13:39:28.520Z,44.99
2022-08-17T13:44:31.619Z,46.36
2022-08-17T13:49:48.114Z,48.29
2022-08-17T13:54:51.685Z,49.74
2022-08-17T14:00:15.771Z,49.91
2022-08-17T14:05:17.468Z,52.18
2022-08-17T14:10:20.342Z,54.04
2022-08-17T14:15:55.452Z,54.81
2022-08-17T14:20:47.016Z,55.10
2022-08-17T14:25:48.632Z,55.37
2022-08-17T14:30:50.222Z,56.12
2022-08-17T14:35:51.949Z,55.02
2022-08-17T14:40:53.721Z,51.91
2022-08-17T14:45:55.426Z,51.70
2022-08-17T14:50:56.993Z,53.31
2022-08-17T14:55:58.672Z,53.40
2022-08-17T15:01:00.302Z,50.46
2022-08-17T15:06:01.961Z,49.65
2022-08-17T15:11:04.602Z,50.53
2022-08-17T15:16:06.421Z,50.29
2022-08-17T15:21:09.304Z,47.99
2022-08-17T15:26:11.473Z,47.71
2022-08-17T15:31:13.345Z,45.86
2022-08-17T15:36:15.001Z,48.28
2022-08-17T15:41:17.668Z,48.13
2022-08-17T15:46:22.098Z,47.45
2022-08-17T15:51:35.122Z,50.40
2022-08-17T15:56:38.009Z,50.42
2022-08-17T16:03:13.662Z,49.65
2022-08-17T16:07:01.161Z,52.10
2022-08-17T16:12:21.751Z,51.29
2022-08-17T16:17:38.718Z,48.92
2022-08-17T16:22:45.702Z,49.02
2022-08-17T16:27:50.097Z,48.44
2022-08-17T16:32:53.965Z,48.49
2022-08-17T16:37:56.533Z,50.80
2022-08-17T16:42:59.014Z,51.67
2022-08-17T16:48:00.717Z,51.60
2022-08-17T16:53:13.658Z,51.53
2022-08-17T16:58:15.745Z,50.43
2022-08-17T17:03:21.860Z,49.64
2022-08-17T17:08:33.920Z,49.15
2022-08-17T17:13:44.601Z,50.79
2022-08-17T17:19:34.326Z,54.02
2022-08-17T17:24:56.978Z,54.73
2022-08-17T17:30:12.813Z,54.97
2022-08-17T17:35:25.616Z,54.82
2022-08-17T17:40:54.802Z,56.51
2022-08-17T17:46:28.339Z,59.05
2022-08-17T17:52:09.146Z,60.71
2022-08-17T17:57:30.249Z,62.46
2022-08-17T18:02:46.541Z,63.50
2022-08-17T18:08:04.755Z,64.41
2022-08-17T18:13:47.807Z,66.25
2022-08-17T18:18:51.162Z,67.02
2022-08-17T18:23:55.394Z,66.99
2022-08-17T18:28:57.142Z,68.38
2022-08-17T18:34:45.826Z,68.65
2022-08-17T18:39:44.275Z,68.09
2022-08-17T18:44:46.004Z,68.42
2022-08-17T18:49:56.848Z,69.18
2022-08-17T18:55:13.609Z,69.85
2022-08-17T19:00:21.333Z,70.14
2022-08-17T19:05:39.825Z,71.26
2022-08-17T19:10:46.381Z,71.63
2022-08-17T19:16:13.834Z,72.29
2022-08-17T19:21:37.128Z,73.53
2022-08-17T19:26:55.382Z,74.66
2022-08-17T19:31:58.731Z,75.71
2022-08-17T19:37:09.255Z,76.94
2022-08-17T19:42:17.844Z,78.57
2022-08-17T19:48:04.650Z,79.83
2022-08-17T19:53:06.370Z,80.54
2022-08-17T19:58:38.636Z,81.13
2022-08-17T20:04:07.927Z,81.59
2022-08-17T20:09:29.697Z,81.80
2022-08-17T20:15:08.601Z,82.20
2022-08-17T20:20:31.810Z,81.19
2022-08-17T20:25:57.239Z,81.07
2022-08-17T20:30:58.960Z,81.29
2022-08-17T20:36:11.514Z,82.02
2022-08-17T20:41:14.859Z,82.78
2022-08-17T20:46:28.202Z,83.76
2022-08-17T20:51:33.849Z,83.45
2022-08-17T20:56:44.311Z,84.18
2022-08-17T21:02:05.166Z,84.88
2022-08-17T21:07:27.984Z,85.40
2022-08-17T21:13:01.682Z,87.09
2022-08-17T21:18:15.372Z,87.83
2022-08-17T21:23:31.601Z,88.59
2022-08-17T21:29:00.761Z,88.85
2022-08-17T21:34:15.291Z,89.89
2022-08-17T21:39:30.638Z,90.60
2022-08-17T21:44:37.373Z,91.71
2022-08-17T21:49:38.934Z,92.87
2022-08-17T21:54:48.496Z,93.52
2022-08-17T21:59:59.964Z,95.29
2022-08-17T22:05:13.947Z,95.37
2022-08-17T22:10:27.774Z,94.87
2022-08-17T22:15:29.486Z,96.38
2022-08-17T22:20:31.334Z,98.36
2022-08-17T22:25:37.007Z,99.25
2022-08-17T22:30:40.651Z,100.00
2022-08-17T22:35:43.382Z,100.00
2022-08-17T22:41:13.102Z,100.00
2022-08-17T22:46:15.450Z,100.00
2022-08-17T22:51:27.986Z,100.00
2022-08-17T22:56:29.724Z,100.00
2022-08-17T23:01:33.148Z,100.00
2022-08-17T23:06:36.880Z,100.00
2022-08-17T23:11:48.908Z,100.00
2022-08-17T23:16:51.676Z,100.00
2022-08-17T23:21:54.198Z,100.00
2022-08-17T23:26:57.384Z,100.00
2022-08-17T23:32:00.158Z,100.00
2022-08-17T23:37:01.869Z,100.00
2022-08-17T23:42:08.694Z,100.00
2022-08-17T23:47:10.942Z,100.00
2022-08-17T23:52:16.379Z,100.00
2022-08-17T23:57:20.545Z,100.00
